Time;durP1;ratioP1;P1;durP2;ratioP2;P2;SDS_P1;SDS_P2;PMS_P1;PMS_P2;Temp;Humidity;BMP_temperature;BMP_pressure;BME280_temperature;BME280_humidity;BME280_pressure;Samples;Min_cycle;Max_cycle;Signal;HPM_P1;HPM_P2
2022/07/31 00:00:10;;;;;;;;;;;;;;;24.03;46.22;101176.31;4997787;28;4256;-58
2022/07/31 00:02:39;;;;;;;;;;;;;;;24.02;46.21;101180.59;4992990;28;4266;-59
2022/07/31 00:05:06;;;;;;;;;;;;;;;24.00;45.89;101183.41;4989293;28;4390;-58
2022/07/31 00:07:32;;;;;;;;;;;;;;;24.01;46.23;101188.53;4999294;28;5301;-58
2022/07/31 00:09:58;;;;;;;;;;;;;;;24.02;46.07;101177.72;4994943;28;5687;-58
2022/07/31 00:12:25;;;;;;;;;;;;;;;24.01;45.99;101176.97;4996298;28;4364;-58
2022/07/31 00:14:51;;;;;;;;;;;;;;;24.01;45.90;101170.44;4995619;28;4213;-58
2022/07/31 00:17:17;;;;;;;;;;;;;;;24.00;46.22;101166.06;4998646;28;4056;-57
2022/07/31 00:19:44;;;;;;;;;;;;;;;23.97;46.18;101168.13;4993197;28;4031;-58
2022/07/31 00:22:11;;;;;;;;;;;;;;;23.97;46.17;101173.19;4997832;28;4187;-58
2022/07/31 00:24:37;;;;;;;;;;;;;;;23.95;46.14;101170.97;4996115;28;4074;-59
2022/07/31 00:27:04;;;;;;;;;;;;;;;23.95;46.19;101170.22;4997511;28;5317;-58
2022/07/31 00:29:31;;;;;;;;;;;;;;;23.94;46.00;101174.53;4996691;28;4348;-58
2022/07/31 00:31:57;;;;;;;;;;;;;;;23.94;46.03;101180.31;5012912;28;4211;-58
2022/07/31 00:34:24;;;;;;;;;;;;;;;23.95;46.01;101173.84;4997377;28;4073;-58
2022/07/31 00:36:50;;;;;;;;;;;;;;;23.95;45.87;101170.22;4997357;28;4056;-57
2022/07/31 00:39:16;;;;;;;;;;;;;;;23.94;46.08;101174.53;4997848;28;4517;-57
2022/07/31 00:41:43;;;;;;;;;;;;;;;23.93;45.99;101170.16;4999237;28;4104;-58
2022/07/31 00:44:10;;;;;;;;;;;;;;;23.93;46.02;101167.25;4992573;28;5298;-58
2022/07/31 00:46:37;;;;;;;;;;;;;;;23.93;46.40;101167.25;5008880;28;5414;-58
2022/07/31 00:49:11;;;;;;;;;;;;;;;23.92;46.20;101157.09;4992946;28;4087;-58
2022/07/31 00:51:38;;;;;;;;;;;;;;;23.92;46.30;101160.00;5012997;28;4250;-58
2022/07/31 00:54:07;;;;;;;;;;;;;;;23.90;46.49;101162.81;4998209;28;4228;-58
2022/07/31 00:56:34;;;;;;;;;;;;;;;23.90;46.33;101157.03;4995357;28;4248;-58
2022/07/31 00:59:00;;;;;;;;;;;;;;;23.90;46.03;101159.91;4996993;28;4193;-58
2022/07/31 01:01:27;;;;;;;;;;;;;;;23.89;46.38;101158.41;4997509;28;4214;-58
2022/07/31 01:03:53;;;;;;;;;;;;;;;23.88;46.29;101151.16;4996009;28;4187;-58
2022/07/31 01:06:20;;;;;;;;;;;;;;;23.89;46.30;101155.53;4997601;28;4239;-58
2022/07/31 01:08:46;;;;;;;;;;;;;;;23.87;45.97;101153.31;4998281;28;4670;-58
2022/07/31 01:11:14;;;;;;;;;;;;;;;23.89;46.07;101164.22;4997936;28;5568;-58
2022/07/31 01:13:44;;;;;;;;;;;;;;;23.88;45.94;101162.72;4981072;28;4074;-58
2022/07/31 01:16:11;;;;;;;;;;;;;;;23.86;46.09;101169.19;4997210;28;4398;-58
2022/07/31 01:18:37;;;;;;;;;;;;;;;23.86;45.92;101160.50;4997339;28;5450;-58
2022/07/31 01:21:05;;;;;;;;;;;;;;;23.87;45.98;101167.03;4981858;28;4139;-62
2022/07/31 01:23:40;;;;;;;;;;;;;;;23.84;46.09;101169.09;4993344;28;4213;-59
2022/07/31 01:26:36;;;;;;;;;;;;;;;23.84;46.11;101163.31;4978323;28;4187;-58
2022/07/31 01:29:05;;;;;;;;;;;;;;;23.83;46.12;101171.25;4991273;28;5505;-59
2022/07/31 01:31:36;;;;;;;;;;;;;;;23.82;46.10;101164.00;4973901;28;5337;-59
2022/07/31 01:34:11;;;;;;;;;;;;;;;23.81;45.83;101155.97;5011822;28;4240;-58
2022/07/31 01:36:38;;;;;;;;;;;;;;;23.80;45.75;101163.94;4996196;28;4255;-58
2022/07/31 01:39:05;;;;;;;;;;;;;;;23.80;45.94;101166.06;4985660;28;4200;-59
2022/07/31 01:41:37;;;;;;;;;;;;;;;23.80;45.60;101160.28;5009028;28;5662;-58
2022/07/31 01:44:04;;;;;;;;;;;;;;;23.79;45.70;101159.53;4994967;28;5845;-58
2022/07/31 01:46:30;;;;;;;;;;;;;;;23.78;45.74;101158.06;5003981;28;4505;-58
2022/07/31 01:49:02;;;;;;;;;;;;;;;23.78;45.82;101166.75;4984862;28;4220;-58
2022/07/31 01:51:29;;;;;;;;;;;;;;;23.78;46.01;101166.00;4996114;28;4198;-58
2022/07/31 01:53:56;;;;;;;;;;;;;;;23.78;46.07;101158.06;4996454;28;5495;-58
2022/07/31 01:56:22;;;;;;;;;;;;;;;23.77;45.98;101155.81;4989963;28;4650;-58
2022/07/31 01:58:49;;;;;;;;;;;;;;;23.77;46.10;101168.13;4999342;28;4337;-59
2022/07/31 02:01:29;;;;;;;;;;;;;;;23.76;46.02;101160.88;4985185;28;5448;-59
2022/07/31 02:03:56;;;;;;;;;;;;;;;23.75;46.05;101162.25;4993870;28;4156;-59
2022/07/31 02:06:26;;;;;;;;;;;;;;;23.75;45.95;101158.66;4984237;28;4262;-58
2022/07/31 02:08:53;;;;;;;;;;;;;;;23.74;46.02;101163.69;4996162;28;5203;-56
2022/07/31 02:11:20;;;;;;;;;;;;;;;23.73;45.84;101162.19;5000008;28;4225;-59
2022/07/31 02:13:47;;;;;;;;;;;;;;;23.72;46.17;101169.38;4992677;28;4295;-58
2022/07/31 02:16:14;;;;;;;;;;;;;;;23.73;46.18;101161.44;4996459;28;4149;-58
2022/07/31 02:18:40;;;;;;;;;;;;;;;23.72;46.09;101160.69;4975847;28;4103;-58
2022/07/31 02:21:17;;;;;;;;;;;;;;;23.73;46.02;101152.75;5001020;28;4764;-58
2022/07/31 02:23:44;;;;;;;;;;;;;;;23.73;46.15;101150.63;5000247;28;4108;-59
2022/07/31 02:26:11;;;;;;;;;;;;;;;23.72;46.36;101154.91;4991398;28;4357;-58
2022/07/31 02:28:39;;;;;;;;;;;;;;;23.71;46.25;101147.66;4996925;28;5418;-59
2022/07/31 02:31:05;;;;;;;;;;;;;;;23.70;46.30;101146.16;4993374;28;5090;-59
2022/07/31 02:33:32;;;;;;;;;;;;;;;23.69;46.32;101141.06;4998641;28;4456;-58
2022/07/31 02:35:58;;;;;;;;;;;;;;;23.67;46.26;101144.59;4982037;28;4102;-59
2022/07/31 02:38:25;;;;;;;;;;;;;;;23.66;46.35;101137.31;4991245;28;4007;-58
2022/07/31 02:40:55;;;;;;;;;;;;;;;23.65;46.17;101141.63;4995195;28;4278;-59
2022/07/31 02:43:22;;;;;;;;;;;;;;;23.64;46.23;101137.28;4977618;28;4203;-58
2022/07/31 02:45:49;;;;;;;;;;;;;;;23.63;46.10;101135.78;5008623;28;4217;-58
2022/07/31 02:48:15;;;;;;;;;;;;;;;23.62;46.32;101143.72;4992379;28;4596;-58
2022/07/31 02:50:46;;;;;;;;;;;;;;;23.62;46.29;101142.97;4987321;28;4222;-58
2022/07/31 02:53:12;;;;;;;;;;;;;;;23.61;45.99;101138.59;4982630;28;5310;-58
2022/07/31 02:55:38;;;;;;;;;;;;;;;23.60;46.11;101137.13;4998449;28;4272;-58
2022/07/31 02:58:05;;;;;;;;;;;;;;;23.60;46.20;101137.84;4994334;28;4262;-58
2022/07/31 03:00:32;;;;;;;;;;;;;;;23.58;46.33;101134.88;4990171;28;4528;-58
2022/07/31 03:02:59;;;;;;;;;;;;;;;23.58;46.30;101134.88;4999227;28;4395;-58
2022/07/31 03:05:25;;;;;;;;;;;;;;;23.60;46.19;101140.00;4993039;28;4185;-58
2022/07/31 03:07:52;;;;;;;;;;;;;;;23.60;46.37;101137.13;4992889;28;4217;-58
2022/07/31 03:10:18;;;;;;;;;;;;;;;23.59;46.37;101129.84;5000804;28;4578;-57
2022/07/31 03:13:01;;;;;;;;;;;;;;;23.60;46.40;101140.00;4993655;28;4233;-58
2022/07/31 03:15:27;;;;;;;;;;;;;;;23.59;46.33;101135.63;4976489;28;4197;-57
2022/07/31 03:17:54;;;;;;;;;;;;;;;23.57;46.46;101132.66;4977182;28;4541;-57
2022/07/31 03:20:30;;;;;;;;;;;;;;;23.56;46.36;101136.97;4993644;28;4564;-58
2022/07/31 03:22:59;;;;;;;;;;;;;;;23.55;46.44;101144.16;4991721;28;5444;-58
2022/07/31 03:25:25;;;;;;;;;;;;;;;23.55;46.44;101135.50;5001197;28;4543;-58
2022/07/31 03:27:52;;;;;;;;;;;;;;;23.54;46.63;101139.78;4994992;28;4418;-58
2022/07/31 03:30:24;;;;;;;;;;;;;;;23.52;46.38;101136.81;4979882;28;4197;-58
2022/07/31 03:32:53;;;;;;;;;;;;;;;23.52;46.52;101142.59;4996336;28;4582;-57
2022/07/31 03:35:20;;;;;;;;;;;;;;;23.51;46.32;101132.44;4997926;28;5447;-57
2022/07/31 03:37:46;;;;;;;;;;;;;;;23.50;46.20;101136.72;4990791;28;4045;-58
2022/07/31 03:40:13;;;;;;;;;;;;;;;23.49;46.26;101138.13;4993015;28;4089;-57
2022/07/31 03:42:39;;;;;;;;;;;;;;;23.49;46.32;101132.34;4997105;28;4122;-58
2022/07/31 03:45:06;;;;;;;;;;;;;;;23.49;46.30;101138.13;4992173;28;4116;-58
2022/07/31 03:47:32;;;;;;;;;;;;;;;23.49;46.04;101143.91;4995823;28;4108;-57
2022/07/31 03:49:59;;;;;;;;;;;;;;;23.47;46.04;101133.00;4994235;28;4179;-58
2022/07/31 03:52:25;;;;;;;;;;;;;;;23.46;46.20;101140.22;4996851;28;5238;-58
2022/07/31 03:54:52;;;;;;;;;;;;;;;23.45;46.08;101138.72;4973787;28;4166;-58
2022/07/31 03:57:19;;;;;;;;;;;;;;;23.47;46.17;101143.84;5007634;28;5377;-58
2022/07/31 03:59:53;;;;;;;;;;;;;;;23.45;46.10;101140.88;4997561;28;5194;-57
2022/07/31 04:02:19;;;;;;;;;;;;;;;23.45;46.19;101137.97;4999546;28;5240;-58
2022/07/31 04:04:49;;;;;;;;;;;;;;;23.44;46.36;101134.34;5005256;28;5504;-57
2022/07/31 04:07:15;;;;;;;;;;;;;;;23.44;46.49;101139.41;4994607;28;4190;-58
2022/07/31 04:09:42;;;;;;;;;;;;;;;23.44;46.26;101145.91;4999471;28;4191;-57
2022/07/31 04:12:10;;;;;;;;;;;;;;;23.44;46.06;101142.28;4997020;28;4575;-59
2022/07/31 04:14:36;;;;;;;;;;;;;;;23.42;46.27;101149.47;5003989;28;4482;-58
2022/07/31 04:17:03;;;;;;;;;;;;;;;23.42;46.44;101146.56;4998732;28;6373;-57
2022/07/31 04:19:29;;;;;;;;;;;;;;;23.42;46.61;101149.47;4986581;28;4109;-58
2022/07/31 04:21:56;;;;;;;;;;;;;;;23.43;46.21;101153.09;5011307;28;4320;-58
2022/07/31 04:24:23;;;;;;;;;;;;;;;23.43;46.47;101147.31;5014836;28;4481;-58
2022/07/31 04:27:05;;;;;;;;;;;;;;;23.41;46.57;101139.31;4997163;28;4229;-58
2022/07/31 04:29:42;;;;;;;;;;;;;;;23.40;46.50;101149.38;4999090;28;4504;-58
2022/07/31 04:32:08;;;;;;;;;;;;;;;23.38;46.68;101143.50;5007878;28;4469;-58
2022/07/31 04:34:41;;;;;;;;;;;;;;;23.39;46.50;101142.13;4997415;28;4396;-58
2022/07/31 04:37:07;;;;;;;;;;;;;;;23.37;46.84;101139.16;5000664;28;4297;-57
2022/07/31 04:39:34;;;;;;;;;;;;;;;23.39;46.53;101142.13;4996355;28;4434;-58
2022/07/31 04:42:00;;;;;;;;;;;;;;;23.39;46.69;101145.00;4997964;28;4190;-58
2022/07/31 04:44:29;;;;;;;;;;;;;;;23.40;47.06;101146.50;4997508;28;4513;-58
2022/07/31 04:46:59;;;;;;;;;;;;;;;23.40;46.76;101149.38;4998573;28;4575;-58
2022/07/31 04:49:26;;;;;;;;;;;;;;;23.40;47.20;101152.28;4991694;28;4377;-58
2022/07/31 04:51:53;;;;;;;;;;;;;;;23.40;47.02;101149.38;5012234;28;4223;-57
2022/07/31 04:54:19;;;;;;;;;;;;;;;23.41;47.10;101150.88;4994605;28;4233;-58
2022/07/31 04:56:47;;;;;;;;;;;;;;;23.41;47.29;101147.25;5002084;28;4233;-58
2022/07/31 04:59:14;;;;;;;;;;;;;;;23.41;47.25;101153.78;5002661;28;5575;-58
2022/07/31 05:01:44;;;;;;;;;;;;;;;23.40;47.40;101137.81;4997271;28;4121;-58
2022/07/31 05:04:12;;;;;;;;;;;;;;;23.38;47.77;101145.69;4996420;28;4100;-58
2022/07/31 05:06:40;;;;;;;;;;;;;;;23.40;47.69;101140.72;4993683;28;4062;-58
2022/07/31 05:09:07;;;;;;;;;;;;;;;23.38;47.79;101139.91;5011323;28;4102;-58
2022/07/31 05:11:41;;;;;;;;;;;;;;;23.39;48.10;101147.16;4990821;28;4205;-58
2022/07/31 05:14:08;;;;;;;;;;;;;;;23.39;48.10;101155.84;5001293;28;4095;-58
2022/07/31 05:16:34;;;;;;;;;;;;;;;23.40;48.51;101158.06;4993842;28;4121;-58
2022/07/31 05:19:01;;;;;;;;;;;;;;;23.41;48.28;101150.16;5011677;28;4086;-57
2022/07/31 05:22:05;;;;;;;;;;;;;;;23.41;48.70;101153.03;4993129;28;4127;-58
2022/07/31 05:24:51;;;;;;;;;;;;;;;23.43;48.44;101150.19;4996167;28;4948;-57
2022/07/31 05:27:17;;;;;;;;;;;;;;;23.44;48.78;101162.53;4995699;28;4115;-57
2022/07/31 05:29:44;;;;;;;;;;;;;;;23.44;48.71;101162.53;5013565;28;4231;-58
2022/07/31 05:32:11;;;;;;;;;;;;;;;23.44;49.03;101160.38;4994770;28;5188;-57
2022/07/31 05:34:38;;;;;;;;;;;;;;;23.42;49.03;101155.25;5012227;28;4234;-58
2022/07/31 05:37:04;;;;;;;;;;;;;;;23.42;48.91;101160.28;4995186;28;5516;-59
2022/07/31 05:39:34;;;;;;;;;;;;;;;23.42;49.18;101168.97;5011818;28;4065;-58
2022/07/31 05:42:19;;;;;;;;;;;;;;;23.44;49.26;101171.19;4997739;28;4130;-57
2022/07/31 05:45:05;;;;;;;;;;;;;;;23.44;49.08;101171.19;4994758;28;4274;-58
2022/07/31 05:47:32;;;;;;;;;;;;;;;23.41;49.29;101162.44;4993145;28;4621;-58
2022/07/31 05:50:07;;;;;;;;;;;;;;;23.41;49.58;101168.22;5008356;28;4070;-58
2022/07/31 05:52:33;;;;;;;;;;;;;;;23.41;49.67;101176.16;4995056;28;4316;-58
2022/07/31 05:55:11;;;;;;;;;;;;;;;23.44;49.71;101176.97;4999818;28;4259;-58
2022/07/31 05:58:03;;;;;;;;;;;;;;;23.48;49.38;101183.66;4995427;28;3992;-58
2022/07/31 06:00:30;;;;;;;;;;;;;;;23.51;49.38;101178.69;4992414;28;4247;-58
2022/07/31 06:02:58;;;;;;;;;;;;;;;23.50;49.48;101177.94;5003275;28;4099;-58
2022/07/31 06:05:45;;;;;;;;;;;;;;;23.50;49.63;101162.72;4994395;28;4529;-58
2022/07/31 06:08:11;;;;;;;;;;;;;;;23.50;49.31;101174.28;5010054;28;5324;-58
2022/07/31 06:10:41;;;;;;;;;;;;;;;23.49;49.45;101173.56;4994673;28;4274;-57
2022/07/31 06:13:08;;;;;;;;;;;;;;;23.50;49.67;101168.50;4996607;28;4271;-58
2022/07/31 06:15:34;;;;;;;;;;;;;;;23.50;49.50;101174.28;4993342;28;4250;-58
2022/07/31 06:18:02;;;;;;;;;;;;;;;23.51;49.69;101175.78;4991666;28;4089;-58
2022/07/31 06:20:29;;;;;;;;;;;;;;;23.50;49.70;101169.28;4994790;28;5519;-58
2022/07/31 06:22:56;;;;;;;;;;;;;;;23.51;49.99;101164.22;4993634;28;4270;-58
2022/07/31 06:25:27;;;;;;;;;;;;;;;23.51;50.06;101170.00;4992965;28;4159;-58
2022/07/31 06:27:57;;;;;;;;;;;;;;;23.53;49.86;101170.09;4996786;28;4607;-58
2022/07/31 06:30:26;;;;;;;;;;;;;;;23.52;49.99;101165.72;4994489;28;4217;-58
2022/07/31 06:32:53;;;;;;;;;;;;;;;23.52;49.98;101165.72;5007352;28;4134;-58
2022/07/31 06:35:20;;;;;;;;;;;;;;;23.53;49.97;101170.09;4995465;28;5451;-58
2022/07/31 06:38:09;;;;;;;;;;;;;;;23.52;50.31;101168.59;4990520;28;4101;-60
2022/07/31 06:40:55;;;;;;;;;;;;;;;23.53;50.44;101173.72;4990257;28;5492;-58
2022/07/31 06:43:32;;;;;;;;;;;;;;;23.52;50.76;101172.22;5013872;28;4497;-58
2022/07/31 06:46:23;;;;;;;;;;;;;;;23.52;51.11;101172.22;4995189;28;4372;-58
2022/07/31 06:49:09;;;;;;;;;;;;;;;23.50;51.75;101175.06;4992342;28;5306;-58
2022/07/31 06:51:36;;;;;;;;;;;;;;;23.51;51.48;101175.78;4989724;28;4083;-57
2022/07/31 06:54:03;;;;;;;;;;;;;;;23.51;52.01;101175.78;4992279;28;4152;-58
2022/07/31 06:56:29;;;;;;;;;;;;;;;23.41;52.40;101174.00;4984741;28;4687;-60
2022/07/31 06:58:56;;;;;;;;;;;;;;;23.16;53.47;101172.28;4992892;28;4170;-59
2022/07/31 07:01:22;;;;;;;;;;;;;;;23.29;53.87;101172.78;4990581;28;4062;-58
2022/07/31 07:03:48;;;;;;;;;;;;;;;22.51;56.57;101170.31;4996010;28;4624;-58
2022/07/31 07:06:15;;;;;;;;;;;;;;;22.38;56.90;101162.56;4993741;28;4195;-58
2022/07/31 07:08:41;;;;;;;;;;;;;;;22.46;56.60;101162.91;4994942;28;4138;-60
2022/07/31 07:11:09;;;;;;;;;;;;;;;22.51;56.75;101161.66;4994489;28;4933;-60
2022/07/31 07:13:38;;;;;;;;;;;;;;;22.09;58.39;101161.31;4997513;28;4233;-57
2022/07/31 07:16:13;;;;;;;;;;;;;;;22.55;57.00;101167.63;4998313;28;4062;-59
2022/07/31 07:18:40;;;;;;;;;;;;;;;22.74;57.17;101163.34;4993989;28;4109;-56
2022/07/31 07:21:06;;;;;;;;;;;;;;;22.07;59.12;101160.47;4992141;28;4109;-51
2022/07/31 07:23:34;;;;;;;;;;;;;;;22.59;57.29;101147.59;4991681;28;4275;-54
2022/07/31 07:26:26;;;;;;;;;;;;;;;22.92;56.64;101148.91;4989948;28;4223;-54
2022/07/31 07:28:53;;;;;;;;;;;;;;;23.08;55.90;101148.13;5010573;28;4089;-53
2022/07/31 07:31:19;;;;;;;;;;;;;;;23.16;55.52;101148.44;5001596;28;4159;-51
2022/07/31 07:33:46;;;;;;;;;;;;;;;23.26;55.11;101151.00;4995537;28;4124;-55
2022/07/31 07:36:15;;;;;;;;;;;;;;;23.31;55.07;101143.97;5000560;28;5218;-54
2022/07/31 07:38:59;;;;;;;;;;;;;;;23.34;54.72;101140.50;4999536;28;4276;-50
2022/07/31 07:41:27;;;;;;;;;;;;;;;23.36;54.59;101148.47;5004576;28;5273;-54
2022/07/31 07:43:53;;;;;;;;;;;;;;;23.38;54.28;101134.13;5003521;28;5337;-53
2022/07/31 07:46:24;;;;;;;;;;;;;;;23.39;54.08;101136.34;4998161;28;5333;-53
2022/07/31 07:48:54;;;;;;;;;;;;;;;23.37;54.00;101127.59;4999289;28;5358;-54
2022/07/31 07:51:33;;;;;;;;;;;;;;;23.38;53.59;101123.28;4996752;28;4416;-51
2022/07/31 07:54:22;;;;;;;;;;;;;;;23.39;53.34;101127.69;4998005;28;5151;-54
2022/07/31 07:57:08;;;;;;;;;;;;;;;23.41;53.48;101124.13;4993974;28;5978;-54
2022/07/31 07:59:53;;;;;;;;;;;;;;;23.41;53.62;101121.25;4999298;28;4586;-52
2022/07/31 08:02:38;;;;;;;;;;;;;;;23.42;53.24;101116.94;5000156;28;5592;-54
2022/07/31 08:05:06;;;;;;;;;;;;;;;23.42;53.34;101117.66;4993101;28;6148;-54
2022/07/31 08:07:34;;;;;;;;;;;;;;;23.42;52.91;101117.66;4994498;28;5025;-54
2022/07/31 08:10:28;;;;;;;;;;;;;;;23.44;53.17;101113.38;4985469;28;4924;-55
2022/07/31 08:13:03;;;;;;;;;;;;;;;23.43;53.08;101112.63;4999946;28;4536;-52
2022/07/31 08:15:50;;;;;;;;;;;;;;;23.44;52.72;101119.91;4996261;28;4554;-58
2022/07/31 08:18:24;;;;;;;;;;;;;;;23.44;53.69;101110.50;4993795;28;4535;-58
2022/07/31 08:20:53;;;;;;;;;;;;;;;23.40;53.69;101111.81;4997285;28;5406;-61
2022/07/31 08:23:20;;;;;;;;;;;;;;;23.41;54.18;101116.19;4999647;28;5521;-58
2022/07/31 08:25:46;;;;;;;;;;;;;;;23.50;53.85;101102.81;4991885;28;4234;-52
2022/07/31 08:28:16;;;;;;;;;;;;;;;23.53;53.58;101121.69;4996569;28;6084;-56
2022/07/31 08:30:49;;;;;;;;;;;;;;;23.51;53.92;101112.22;4993415;28;4338;-56
2022/07/31 08:33:18;;;;;;;;;;;;;;;23.56;53.67;101113.84;4997520;28;4171;-54
2022/07/31 08:35:51;;;;;;;;;;;;;;;23.62;54.19;101117.69;4995521;28;4997;-53
2022/07/31 08:38:18;;;;;;;;;;;;;;;23.55;54.04;101115.25;4999445;28;4574;-57
2022/07/31 08:41:01;;;;;;;;;;;;;;;23.59;54.06;101100.94;4991297;28;4298;-65
2022/07/31 08:43:28;;;;;;;;;;;;;;;23.71;53.58;101104.28;4988083;28;4487;-57
2022/07/31 08:46:15;;;;;;;;;;;;;;;23.72;53.31;101091.28;4994066;28;4606;-57
2022/07/31 08:48:43;;;;;;;;;;;;;;;23.75;53.34;101104.44;4977620;28;5343;-57
2022/07/31 08:51:10;;;;;;;;;;;;;;;23.72;52.77;101099.97;4992302;28;4490;-57
2022/07/31 08:53:56;;;;;;;;;;;;;;;23.72;52.79;101096.34;4997874;28;4606;-57
2022/07/31 08:56:24;;;;;;;;;;;;;;;23.77;52.75;101098.72;4989422;28;4532;-57
2022/07/31 08:58:50;;;;;;;;;;;;;;;23.75;52.75;101089.97;4992426;28;4427;-57
2022/07/31 09:01:19;;;;;;;;;;;;;;;23.78;52.61;101105.28;4994205;28;5568;-57
2022/07/31 09:03:45;;;;;;;;;;;;;;;23.79;52.60;101093.03;4996637;28;4626;-58
2022/07/31 09:06:13;;;;;;;;;;;;;;;23.78;52.97;101094.44;4991829;28;4589;-58
2022/07/31 09:08:40;;;;;;;;;;;;;;;23.79;52.70;101093.03;5000635;28;4612;-57
2022/07/31 09:11:09;;;;;;;;;;;;;;;23.81;52.28;101098.88;4994497;28;4445;-56
2022/07/31 09:13:39;;;;;;;;;;;;;;;23.80;52.91;101090.88;4996195;28;4255;-57
2022/07/31 09:16:25;;;;;;;;;;;;;;;23.80;52.91;101085.84;4993509;28;5466;-58
2022/07/31 09:18:57;;;;;;;;;;;;;;;23.74;52.81;101082.72;4992164;28;4696;-58
2022/07/31 09:21:23;;;;;;;;;;;;;;;23.80;52.29;101090.88;4995509;28;6868;-57
2022/07/31 09:23:49;;;;;;;;;;;;;;;23.90;53.12;101081.84;4996045;28;5332;-57
2022/07/31 09:26:16;;;;;;;;;;;;;;;23.92;53.17;101079.75;4997779;28;5790;-58
2022/07/31 09:28:43;;;;;;;;;;;;;;;23.93;53.06;101086.25;4997304;28;4152;-57
2022/07/31 09:31:10;;;;;;;;;;;;;;;23.80;53.11;101085.84;4992209;28;4572;-58
2022/07/31 09:33:57;;;;;;;;;;;;;;;23.86;52.79;101078.78;4994836;28;4247;-57
2022/07/31 09:36:32;;;;;;;;;;;;;;;23.80;52.78;101080.06;4998270;28;5054;-57
2022/07/31 09:39:13;;;;;;;;;;;;;;;23.95;53.11;101077.66;5014152;28;4223;-58
2022/07/31 09:42:37;;;;;;;;;;;;;;;23.95;52.49;101074.78;4948625;28;5360;-57
2022/07/31 09:45:18;;;;;;;;;;;;;;;23.98;52.58;101071.28;4994601;28;4210;-57
2022/07/31 09:47:44;;;;;;;;;;;;;;;24.00;53.03;101079.28;4992624;28;4080;-57
2022/07/31 09:50:11;;;;;;;;;;;;;;;24.01;52.26;101075.00;4996305;28;5469;-57
2022/07/31 09:52:37;;;;;;;;;;;;;;;23.94;52.76;101070.41;5006125;28;4236;-58
2022/07/31 09:55:05;;;;;;;;;;;;;;;24.02;52.80;101064.88;4990334;28;5618;-53
2022/07/31 09:57:52;;;;;;;;;;;;;;;23.95;53.00;101071.88;5008112;28;5372;-53
2022/07/31 10:00:19;;;;;;;;;;;;;;;23.93;52.83;101069.66;5005177;28;4484;-65
2022/07/31 10:02:46;;;;;;;;;;;;;;;23.96;52.61;101062.53;4982961;28;4195;-59
2022/07/31 10:05:13;;;;;;;;;;;;;;;23.91;52.46;101060.16;4999495;28;4236;-58
2022/07/31 10:07:39;;;;;;;;;;;;;;;23.93;52.49;101054.47;4991323;28;4230;-58
2022/07/31 10:10:11;;;;;;;;;;;;;;;23.93;52.61;101054.47;4971825;28;4181;-59
2022/07/31 10:12:44;;;;;;;;;;;;;;;23.92;52.28;101055.88;4982488;28;4629;-58
2022/07/31 10:15:11;;;;;;;;;;;;;;;23.89;52.50;101045.63;4986552;28;4103;-59
2022/07/31 10:17:41;;;;;;;;;;;;;;;23.90;52.40;101064.47;4995788;28;4451;-59
2022/07/31 10:20:26;;;;;;;;;;;;;;;23.89;52.50;101063.75;4993794;28;4194;-58
2022/07/31 10:23:18;;;;;;;;;;;;;;;23.88;52.72;101049.94;4996568;28;4838;-59
2022/07/31 10:25:56;;;;;;;;;;;;;;;23.88;52.45;101047.78;5000802;28;4151;-59
2022/07/31 10:28:23;;;;;;;;;;;;;;;23.88;52.58;101047.06;4994675;28;4795;-59
2022/07/31 10:30:49;;;;;;;;;;;;;;;23.87;52.68;101049.22;4996341;28;5414;-59
2022/07/31 10:33:16;;;;;;;;;;;;;;;23.88;52.52;101049.94;4993939;28;4372;-59
2022/07/31 10:36:33;;;;;;;;;;;;;;;23.87;52.49;101036.88;4992453;28;5794;-59
2022/07/31 10:39:30;;;;;;;;;;;;;;;23.87;52.27;101036.88;5010926;28;5844;-59
2022/07/31 10:42:30;;;;;;;;;;;;;;;23.88;52.09;101042.00;4997071;28;4129;-59
2022/07/31 10:45:02;;;;;;;;;;;;;;;23.87;52.21;101037.66;4985490;28;4568;-59
2022/07/31 10:47:38;;;;;;;;;;;;;;;23.88;51.91;101032.59;4991099;28;4549;-59
2022/07/31 10:50:36;;;;;;;;;;;;;;;23.88;51.94;101044.16;4995662;28;5454;-59
2022/07/31 10:53:10;;;;;;;;;;;;;;;23.88;52.09;101035.50;4992646;28;4538;-59
2022/07/31 10:56:01;;;;;;;;;;;;;;;23.87;51.87;101036.88;4995831;28;4272;-59
2022/07/31 10:58:54;;;;;;;;;;;;;;;23.86;51.77;101036.16;4993415;28;5524;-59
2022/07/31 11:01:45;;;;;;;;;;;;;;;23.87;51.73;101036.88;4990146;28;4215;-58
2022/07/31 11:04:38;;;;;;;;;;;;;;;23.86;51.54;101035.41;4992493;28;6135;-58
2022/07/31 11:07:24;;;;;;;;;;;;;;;23.87;51.72;101031.84;4995449;28;5145;-59
2022/07/31 11:10:16;;;;;;;;;;;;;;;23.86;51.93;101029.63;4996053;28;4446;-59
2022/07/31 11:13:03;;;;;;;;;;;;;;;23.87;51.86;101031.09;4993651;28;5884;-59
2022/07/31 11:15:48;;;;;;;;;;;;;;;23.87;51.56;101025.31;4994862;28;4538;-59
2022/07/31 11:18:40;;;;;;;;;;;;;;;23.87;51.48;101025.31;4993318;28;4576;-59
2022/07/31 11:21:07;;;;;;;;;;;;;;;23.88;51.78;101009.47;4992777;28;4802;-59
2022/07/31 11:23:54;;;;;;;;;;;;;;;23.90;51.53;101015.31;4992294;28;5625;-59
2022/07/31 11:26:29;;;;;;;;;;;;;;;23.91;51.34;101025.47;4996700;28;4571;-59
2022/07/31 11:29:07;;;;;;;;;;;;;;;23.89;51.51;101011.69;4996268;28;4672;-59
2022/07/31 11:31:53;;;;;;;;;;;;;;;23.89;51.25;101020.38;4993837;28;4113;-59
2022/07/31 11:34:20;;;;;;;;;;;;;;;23.89;51.51;101022.50;4995740;28;3951;-59
2022/07/31 11:36:46;;;;;;;;;;;;;;;23.90;51.53;101016.03;4996268;28;4471;-58
2022/07/31 11:39:16;;;;;;;;;;;;;;;23.90;51.14;101009.53;4992536;28;4720;-59
2022/07/31 11:41:43;;;;;;;;;;;;;;;23.90;51.11;101006.63;4995872;28;4376;-59
2022/07/31 11:44:11;;;;;;;;;;;;;;;23.90;51.12;101009.53;4995655;28;4440;-59
2022/07/31 11:46:37;;;;;;;;;;;;;;;23.91;51.48;100996.53;4995888;28;4430;-59
2022/07/31 11:49:04;;;;;;;;;;;;;;;23.90;51.06;100997.97;4995847;28;4132;-59
2022/07/31 11:51:30;;;;;;;;;;;;;;;23.91;51.42;101008.09;4994650;28;6078;-59
2022/07/31 11:53:57;;;;;;;;;;;;;;;23.90;51.16;101000.84;4995338;28;4587;-58
2022/07/31 11:56:24;;;;;;;;;;;;;;;23.91;51.37;100996.53;4996308;28;4085;-59
2022/07/31 11:58:50;;;;;;;;;;;;;;;23.90;51.36;100997.97;4995112;28;5000;-59
2022/07/31 12:01:17;;;;;;;;;;;;;;;23.91;51.05;100997.28;4990496;28;5483;-58
2022/07/31 12:03:43;;;;;;;;;;;;;;;23.90;51.10;100995.81;4996025;28;4690;-58
2022/07/31 12:06:10;;;;;;;;;;;;;;;23.91;51.17;100993.66;4994783;28;5293;-59
2022/07/31 12:08:36;;;;;;;;;;;;;;;23.91;51.02;100990.75;4997922;28;5491;-58
2022/07/31 12:11:03;;;;;;;;;;;;;;;23.91;51.02;100984.97;4993848;28;4037;-59
2022/07/31 12:13:31;;;;;;;;;;;;;;;23.91;51.07;100994.38;4997318;28;4177;-58
2022/07/31 12:15:57;;;;;;;;;;;;;;;23.92;51.38;100983.56;4994046;28;4098;-58
2022/07/31 12:18:25;;;;;;;;;;;;;;;23.92;50.94;100977.78;4995324;28;5422;-58
2022/07/31 12:20:52;;;;;;;;;;;;;;;23.92;51.14;100981.41;4993396;28;6069;-58
2022/07/31 12:23:19;;;;;;;;;;;;;;;23.92;50.96;100969.13;4993061;28;5157;-58
2022/07/31 12:26:05;;;;;;;;;;;;;;;23.92;50.88;100969.84;4995275;28;4645;-59
2022/07/31 12:28:31;;;;;;;;;;;;;;;23.93;51.09;100967.69;5001043;28;4241;-59
2022/07/31 12:30:58;;;;;;;;;;;;;;;23.93;51.02;100964.78;4999235;28;4579;-59
2022/07/31 12:33:26;;;;;;;;;;;;;;;23.94;51.18;100960.50;4999687;28;4516;-59
2022/07/31 12:35:52;;;;;;;;;;;;;;;23.95;50.92;100956.19;5000513;28;4349;-59
2022/07/31 12:38:23;;;;;;;;;;;;;;;23.94;50.84;100955.47;4996428;28;4414;-59
2022/07/31 12:41:06;;;;;;;;;;;;;;;23.96;51.11;100951.88;4996816;28;4628;-59
2022/07/31 12:43:34;;;;;;;;;;;;;;;23.96;50.93;100951.88;4998718;28;4230;-59
2022/07/31 12:46:04;;;;;;;;;;;;;;;23.95;51.15;100944.63;4998235;28;4492;-59
2022/07/31 12:48:34;;;;;;;;;;;;;;;23.96;51.04;100951.88;4999039;28;4547;-59
2022/07/31 12:51:07;;;;;;;;;;;;;;;23.96;50.75;100948.97;4999376;28;4400;-59
2022/07/31 12:53:33;;;;;;;;;;;;;;;23.97;51.07;100947.59;5000299;28;4124;-59
2022/07/31 12:56:00;;;;;;;;;;;;;;;23.97;51.06;100947.59;4996929;28;4265;-59
2022/07/31 12:58:26;;;;;;;;;;;;;;;23.99;50.91;100944.75;4996037;28;6013;-59
2022/07/31 13:00:55;;;;;;;;;;;;;;;23.97;51.07;100936.00;4993720;28;4638;-59
2022/07/31 13:03:21;;;;;;;;;;;;;;;23.98;50.99;100941.13;4993393;28;5329;-59
2022/07/31 13:05:47;;;;;;;;;;;;;;;23.98;50.95;100938.25;4995286;28;4443;-59
2022/07/31 13:08:17;;;;;;;;;;;;;;;23.98;50.79;100932.47;4991615;28;4110;-59